Time;durP1;ratioP1;P1;durP2;ratioP2;P2;SDS_P1;SDS_P2;PMS_P1;PMS_P2;Temp;Humidity;BMP_temperature;BMP_pressure;BME280_temperature;BME280_humidity;BME280_pressure;Samples;Min_cycle;Max_cycle;Signal;HPM_P1;HPM_P2
2022/07/24 00:00:46;;;;;;;8.70;7.03;;;;;;;19.86;100.00;101880.75;4723755;30;20478;-63
2022/07/24 00:03:13;;;;;;;9.43;6.82;;;;;;;19.84;100.00;101880.09;4723474;30;20052;-64
2022/07/24 00:05:40;;;;;;;10.77;7.00;;;;;;;19.80;100.00;101882.28;4729106;30;20070;-64
2022/07/24 00:08:06;;;;;;;9.02;5.93;;;;;;;19.80;100.00;101878.78;4730882;30;20175;-64
2022/07/24 00:10:33;;;;;;;9.52;6.68;;;;;;;19.80;100.00;101881.44;4736896;30;20070;-61
2022/07/24 00:12:59;;;;;;;7.55;6.32;;;;;;;19.73;100.00;101882.16;4719577;30;20365;-61
2022/07/24 00:15:25;;;;;;;8.32;6.88;;;;;;;19.74;100.00;101888.34;4731709;30;20423;-63
2022/07/24 00:17:52;;;;;;;9.00;6.93;;;;;;;19.70;100.00;101885.19;4719138;30;20067;-63
2022/07/24 00:20:18;;;;;;;11.63;7.28;;;;;;;19.68;100.00;101886.34;4733507;30;20060;-62
2022/07/24 00:22:45;;;;;;;11.85;6.57;;;;;;;19.66;100.00;101881.22;4716634;30;20597;-62
2022/07/24 00:25:11;;;;;;;9.27;6.80;;;;;;;19.66;100.00;101883.03;4729047;30;20455;-62
2022/07/24 00:27:38;;;;;;;8.73;6.22;;;;;;;19.66;100.00;101888.38;4723233;30;20068;-63
2022/07/24 00:30:05;;;;;;;8.43;6.53;;;;;;;19.67;100.00;101884.72;4722682;30;20098;-63
2022/07/24 00:32:31;;;;;;;7.80;6.00;;;;;;;19.66;100.00;101881.22;4736347;30;20621;-62
2022/07/24 00:34:58;;;;;;;8.88;6.38;;;;;;;19.66;100.00;101880.38;4718916;30;20068;-62
2022/07/24 00:37:24;;;;;;;8.15;6.63;;;;;;;19.62;100.00;101882.59;4729797;30;20056;-62
2022/07/24 00:39:51;;;;;;;11.45;7.18;;;;;;;19.58;100.00;101878.63;4732163;30;20065;-62
2022/07/24 00:42:17;;;;;;;7.40;6.30;;;;;;;19.61;100.00;101885.44;4722625;30;20152;-63
2022/07/24 00:44:44;;;;;;;8.15;6.57;;;;;;;19.56;100.00;101880.63;4738327;30;20056;-62
2022/07/24 00:47:10;;;;;;;10.18;6.80;;;;;;;19.54;100.00;101880.00;4726863;30;20075;-63
2022/07/24 00:49:37;;;;;;;10.57;7.18;;;;;;;19.46;100.00;101872.91;4726461;30;20064;-62
2022/07/24 00:52:03;;;;;;;11.27;7.57;;;;;;;19.42;100.00;101886.75;4715423;30;20063;-63
2022/07/24 00:54:30;;;;;;;8.80;6.80;;;;;;;19.42;100.00;101882.25;4733916;30;20553;-64
2022/07/24 00:56:56;;;;;;;8.57;6.88;;;;;;;19.36;100.00;101882.97;4736559;30;20579;-62
2022/07/24 00:59:23;;;;;;;11.30;7.35;;;;;;;19.34;100.00;101880.47;4723313;30;20061;-65
2022/07/24 01:01:50;;;;;;;9.02;6.88;;;;;;;19.35;100.00;101884.00;4726963;30;20134;-62
2022/07/24 01:04:18;;;;;;;9.00;7.20;;;;;;;19.33;100.00;101876.19;4711980;30;20362;-64
2022/07/24 01:06:46;;;;;;;7.80;6.15;;;;;;;19.32;100.00;101879.84;4732543;30;20171;-61
2022/07/24 01:09:13;;;;;;;7.60;6.55;;;;;;;19.30;100.00;101871.22;4730510;29;20307;-63
2022/07/24 01:11:40;;;;;;;9.55;6.63;;;;;;;19.31;100.00;101867.56;4742873;30;20106;-61
2022/07/24 01:14:06;;;;;;;10.50;7.43;;;;;;;19.29;100.00;101866.09;4740997;30;20471;-61
2022/07/24 01:16:34;;;;;;;9.15;7.10;;;;;;;19.26;100.00;101866.44;4723618;30;20096;-61
2022/07/24 01:19:01;;;;;;;8.35;7.32;;;;;;;19.25;100.00;101867.44;4732861;30;20577;-64
2022/07/24 01:21:28;;;;;;;10.80;7.82;;;;;;;19.22;100.00;101868.63;4730378;30;20083;-62
2022/07/24 01:23:54;;;;;;;11.35;7.07;;;;;;;19.16;100.00;101872.00;4736614;30;20056;-62
2022/07/24 01:26:21;;;;;;;9.82;7.35;;;;;;;19.12;100.00;101871.50;4733142;30;20525;-64
2022/07/24 01:28:47;;;;;;;9.02;6.97;;;;;;;19.08;100.00;101866.75;4740150;30;20064;-63
2022/07/24 01:31:14;;;;;;;10.63;7.55;;;;;;;19.00;100.00;101864.97;4735463;30;20590;-61
2022/07/24 01:33:40;;;;;;;9.70;7.00;;;;;;;18.98;100.00;101860.84;4728102;30;20051;-63
2022/07/24 01:36:07;;;;;;;11.15;7.07;;;;;;;18.93;100.00;101850.72;4737823;30;20060;-62
2022/07/24 01:38:33;;;;;;;11.15;7.60;;;;;;;18.92;100.00;101855.22;4734043;30;20070;-63
2022/07/24 01:41:00;;;;;;;11.15;8.27;;;;;;;18.95;100.00;101859.34;4738719;30;20086;-63
2022/07/24 01:43:27;;;;;;;11.98;7.97;;;;;;;18.92;100.00;101857.88;4734239;30;20057;-63
2022/07/24 01:45:53;;;;;;;9.77;8.02;;;;;;;18.84;100.00;101852.59;4733425;30;20060;-62
2022/07/24 01:48:20;;;;;;;10.65;9.00;;;;;;;18.81;100.00;101850.28;4737336;30;20175;-63
2022/07/24 01:50:46;;;;;;;11.50;8.57;;;;;;;18.81;100.00;101844.16;4732317;30;20175;-63
2022/07/24 01:53:13;;;;;;;9.13;8.05;;;;;;;18.77;100.00;101847.13;4739353;30;20075;-62
2022/07/24 01:55:40;;;;;;;13.90;8.50;;;;;;;18.75;100.00;101835.00;4737436;30;20059;-64
2022/07/24 01:58:06;;;;;;;10.55;8.35;;;;;;;18.76;100.00;101837.50;4735556;30;20068;-63
2022/07/24 02:00:33;;;;;;;10.57;7.78;;;;;;;18.79;100.00;101831.00;4734101;30;20526;-63
2022/07/24 02:03:00;;;;;;;11.82;8.48;;;;;;;18.76;100.00;101826.88;4730095;30;20174;-63
2022/07/24 02:05:27;;;;;;;11.77;9.10;;;;;;;18.74;100.00;101834.19;4735535;30;20070;-64
2022/07/24 02:07:56;;;;;;;14.50;8.70;;;;;;;18.77;100.00;101833.00;4731008;30;20118;-63
2022/07/24 02:10:23;;;;;;;10.48;8.48;;;;;;;18.73;100.00;101831.72;4734567;30;20503;-63
2022/07/24 02:12:50;;;;;;;12.48;7.78;;;;;;;18.70;100.00;101832.03;4729705;30;20090;-63
2022/07/24 02:15:16;;;;;;;13.75;8.32;;;;;;;18.69;100.00;101825.91;4734311;30;20071;-64
2022/07/24 02:17:51;;;;;;;10.88;7.85;;;;;;;18.71;100.00;101831.88;4744213;30;20540;-62
2022/07/24 02:20:18;;;;;;;13.50;8.88;;;;;;;18.65;100.00;101826.44;4724357;30;20812;-63
2022/07/24 02:22:45;;;;;;;10.77;8.85;;;;;;;18.63;100.00;101825.78;4750071;30;20060;-63
2022/07/24 02:25:12;;;;;;;14.07;8.63;;;;;;;18.59;100.00;101825.31;4726684;30;20175;-62
2022/07/24 02:27:39;;;;;;;10.10;7.90;;;;;;;18.58;100.00;101827.16;4735105;30;20098;-62
2022/07/24 02:30:11;;;;;;;9.05;7.75;;;;;;;18.58;100.00;101821.84;4733061;30;20060;-62
2022/07/24 02:32:39;;;;;;;10.38;7.88;;;;;;;18.54;100.00;101823.19;4736484;30;20060;-63
2022/07/24 02:35:06;;;;;;;11.23;8.75;;;;;;;18.53;100.00;101818.03;4744726;30;20402;-63
2022/07/24 02:37:39;;;;;;;12.43;8.40;;;;;;;18.53;100.00;101816.22;4730424;30;20476;-65
2022/07/24 02:40:07;;;;;;;10.07;8.65;;;;;;;18.49;100.00;101824.72;4722340;30;20366;-63
2022/07/24 02:42:34;;;;;;;;;;;;;;;18.48;100.00;101823.03;4728448;30;20171;-60
2022/07/24 02:45:01;;;;;;;11.68;8.30;;;;;;;18.44;100.00;101827.88;4737142;30;19941;-62
2022/07/24 02:47:27;;;;;;;11.57;9.05;;;;;;;18.38;100.00;101821.44;4729000;30;20071;-62
2022/07/24 02:49:53;;;;;;;8.95;7.65;;;;;;;18.35;100.00;101813.81;4747604;30;20071;-64
2022/07/24 02:52:20;;;;;;;12.57;8.60;;;;;;;18.38;100.00;101820.59;4736567;30;20094;-63
2022/07/24 02:54:46;;;;;;;12.35;9.00;;;;;;;18.37;100.00;101819.78;4723179;30;20075;-63
2022/07/24 02:57:13;;;;;;;12.45;8.75;;;;;;;18.30;100.00;101815.34;4739414;30;20411;-61
2022/07/24 02:59:39;;;;;;;10.80;8.68;;;;;;;18.29;100.00;101825.13;4730519;30;20060;-61
2022/07/24 03:02:06;;;;;;;10.77;7.80;;;;;;;18.31;100.00;101815.16;4732417;30;20098;-62
2022/07/24 03:04:32;;;;;;;10.73;9.10;;;;;;;18.26;100.00;101816.69;4722456;30;20057;-62
2022/07/24 03:06:59;;;;;;;12.70;8.48;;;;;;;18.27;100.00;101815.66;4731047;30;20066;-62
2022/07/24 03:09:26;;;;;;;12.77;9.02;;;;;;;18.27;100.00;101807.69;4721718;30;20449;-61
2022/07/24 03:11:53;;;;;;;11.27;8.35;;;;;;;18.26;100.00;101808.72;4730379;29;20179;-63
2022/07/24 03:14:19;;;;;;;14.38;8.43;;;;;;;18.28;100.00;101812.84;4736121;30;20596;-63
2022/07/24 03:16:46;;;;;;;12.30;8.30;;;;;;;18.28;100.00;101810.19;4733508;30;20063;-61
2022/07/24 03:19:12;;;;;;;10.52;8.00;;;;;;;18.29;100.00;101805.72;4744109;30;20549;-63
2022/07/24 03:21:38;;;;;;;12.10;8.55;;;;;;;18.30;100.00;101804.72;4720716;30;20090;-63
2022/07/24 03:24:14;;;;;;;11.15;8.43;;;;;;;18.30;100.00;101807.38;4726041;30;20056;-63
2022/07/24 03:26:40;;;;;;;11.77;8.90;;;;;;;18.29;100.00;101813.69;4727353;30;20065;-63
2022/07/24 03:29:07;;;;;;;11.75;8.38;;;;;;;18.23;100.00;101817.88;4723193;30;20056;-62
2022/07/24 03:31:34;;;;;;;12.02;8.88;;;;;;;18.16;100.00;101817.72;4740455;30;20478;-63
2022/07/24 03:34:01;;;;;;;13.23;8.88;;;;;;;18.10;100.00;101810.44;4724820;30;20060;-64
2022/07/24 03:36:28;;;;;;;13.68;8.82;;;;;;;18.09;100.00;101807.94;4734239;30;20413;-64
2022/07/24 03:38:54;;;;;;;10.93;8.70;;;;;;;18.08;100.00;101806.31;4722320;30;20533;-61
2022/07/24 03:41:20;;;;;;;13.75;8.30;;;;;;;18.05;100.00;101809.28;4730615;30;20068;-63
2022/07/24 03:43:47;;;;;;;14.38;8.40;;;;;;;18.03;100.00;101806.81;4737109;30;20051;-64
2022/07/24 03:46:13;;;;;;;11.07;8.75;;;;;;;18.03;100.00;101811.28;4715523;30;20090;-64
2022/07/24 03:48:40;;;;;;;12.98;9.45;;;;;;;17.95;100.00;101807.69;4728900;30;20064;-62
2022/07/24 03:51:06;;;;;;;12.43;9.07;;;;;;;17.94;100.00;101813.16;4718509;30;20070;-63
2022/07/24 03:53:35;;;;;;;11.40;8.27;;;;;;;17.91;100.00;101809.00;4739238;30;20056;-61
2022/07/24 03:56:06;;;;;;;16.05;8.73;;;;;;;17.89;100.00;101802.22;4739744;30;20068;-63
2022/07/24 03:58:33;;;;;;;11.50;8.77;;;;;;;17.84;100.00;101801.88;4730795;30;20067;-62
2022/07/24 04:01:05;;;;;;;13.05;8.40;;;;;;;17.85;100.00;101806.22;4742419;30;20056;-62
2022/07/24 04:03:31;;;;;;;13.13;9.05;;;;;;;17.87;100.00;101799.72;4727032;30;20087;-62
2022/07/24 04:06:04;;;;;;;13.05;9.02;;;;;;;17.90;100.00;101798.56;4744273;30;20919;-62
2022/07/24 04:08:32;;;;;;;11.32;8.45;;;;;;;17.88;100.00;101798.75;4711134;30;20404;-62
2022/07/24 04:10:59;;;;;;;10.00;8.18;;;;;;;17.87;100.00;101799.72;4740228;30;20075;-62
2022/07/24 04:13:27;;;;;;;10.52;8.13;;;;;;;17.87;100.00;101799.72;4725364;30;20363;-63
2022/07/24 04:15:54;;;;;;;12.75;8.80;;;;;;;17.84;100.00;101800.09;4714501;30;20542;-62
2022/07/24 04:18:21;;;;;;;14.82;8.27;;;;;;;17.83;100.00;101798.38;4736472;30;20238;-61
2022/07/24 04:20:48;;;;;;;11.05;8.77;;;;;;;17.82;100.00;101793.25;4730158;30;20063;-62
2022/07/24 04:23:15;;;;;;;10.88;8.68;;;;;;;17.82;100.00;101798.53;4731572;30;20060;-62
2022/07/24 04:25:45;;;;;;;10.90;8.68;;;;;;;17.82;100.00;101804.72;4725121;30;20060;-62
2022/07/24 04:28:11;;;;;;;12.38;9.00;;;;;;;17.86;100.00;101807.88;4732544;30;20523;-62
2022/07/24 04:30:38;;;;;;;11.45;8.95;;;;;;;17.83;100.00;101806.34;4718925;30;20068;-62
2022/07/24 04:33:04;;;;;;;10.38;8.57;;;;;;;17.84;100.00;101807.19;4721130;30;20437;-62
2022/07/24 04:35:31;;;;;;;13.55;8.57;;;;;;;17.84;100.00;101820.47;4738899;30;20068;-62
2022/07/24 04:37:57;;;;;;;12.15;8.75;;;;;;;17.84;100.00;101816.00;4730413;30;20059;-61
2022/07/24 04:40:24;;;;;;;12.55;9.20;;;;;;;17.86;100.00;101826.47;4737908;30;20056;-62
2022/07/24 04:42:50;;;;;;;13.10;9.18;;;;;;;17.87;100.00;101822.78;4728320;30;20084;-62
2022/07/24 04:45:16;;;;;;;11.05;8.35;;;;;;;17.91;100.00;101814.31;4722094;30;20060;-62
2022/07/24 04:47:43;;;;;;;9.90;8.82;;;;;;;17.98;100.00;101822.44;4715513;30;20537;-62
2022/07/24 04:50:09;;;;;;;13.93;10.20;;;;;;;18.04;100.00;101820.94;4714927;30;20525;-62
2022/07/24 04:52:37;;;;;;;14.35;10.73;;;;;;;18.08;100.00;101820.41;4726903;30;20060;-62
2022/07/24 04:55:04;;;;;;;12.88;10.27;;;;;;;18.12;100.00;101821.72;4733192;30;20060;-62
2022/07/24 04:57:30;;;;;;;12.50;10.05;;;;;;;18.12;100.00;101834.16;4742490;30;20403;-62
2022/07/24 04:59:56;;;;;;;13.05;10.35;;;;;;;18.16;100.00;101832.81;4727724;30;20171;-61
2022/07/24 05:02:23;;;;;;;16.05;11.85;;;;;;;18.22;100.00;101833.97;4728476;30;20184;-62
2022/07/24 05:04:49;;;;;;;13.65;11.57;;;;;;;18.24;100.00;101827.47;4734646;30;20060;-62
2022/07/24 05:07:16;;;;;;;15.85;11.68;;;;;;;18.28;100.00;101827.97;4717201;30;20064;-62
2022/07/24 05:09:43;;;;;;;16.65;13.27;;;;;;;18.29;100.00;101819.81;4742316;30;20070;-62
2022/07/24 05:12:09;;;;;;;15.35;12.15;;;;;;;18.33;100.00;101810.50;4732238;30;20302;-63
2022/07/24 05:14:35;;;;;;;15.93;12.85;;;;;;;18.36;100.00;101815.47;4730852;30;20053;-64
2022/07/24 05:17:02;;;;;;;17.98;14.13;;;;;;;18.41;100.00;101812.28;4740845;30;20066;-62
2022/07/24 05:19:28;;;;;;;18.73;13.98;;;;;;;18.47;100.00;101821.41;4735012;30;20262;-62
2022/07/24 05:21:55;;;;;;;22.02;14.65;;;;;;;18.45;100.00;101812.78;4739759;30;20056;-62
2022/07/24 05:24:21;;;;;;;17.70;14.30;;;;;;;18.53;100.00;101810.06;4725261;30;20082;-63
2022/07/24 05:26:47;;;;;;;19.33;14.77;;;;;;;18.56;100.00;101813.22;4728794;30;20082;-63
2022/07/24 05:29:16;;;;;;;;;;;;;;;18.61;100.00;101814.53;4715713;30;20528;-63
2022/07/24 05:31:42;;;;;;;17.27;15.30;;;;;;;18.64;100.00;101808.84;4725506;30;20602;-64
2022/07/24 05:34:09;;;;;;;23.55;16.52;;;;;;;18.62;100.00;101808.19;4736411;30;20180;-62
2022/07/24 05:36:36;;;;;;;22.05;17.70;;;;;;;18.64;100.00;101811.50;4735379;30;20060;-62
2022/07/24 05:39:04;;;;;;;21.55;17.23;;;;;;;18.67;100.00;101813.81;4740439;30;20157;-62
2022/07/24 05:41:31;;;;;;;20.35;16.98;;;;;;;18.66;100.00;101810.34;4727833;30;20068;-63
2022/07/24 05:43:58;;;;;;;24.40;18.67;;;;;;;18.70;100.00;101813.44;4742515;30;20493;-63
2022/07/24 05:46:24;;;;;;;26.52;18.17;;;;;;;18.72;100.00;101812.28;4727214;30;20063;-61
2022/07/24 05:48:50;;;;;;;25.58;20.25;;;;;;;18.71;100.00;101810.63;4730895;30;20060;-61
2022/07/24 05:51:17;;;;;;;23.92;19.85;;;;;;;18.77;100.00;101807.25;4740246;30;20589;-63
2022/07/24 05:53:43;;;;;;;28.20;20.42;;;;;;;18.84;100.00;101818.06;4729838;30;20064;-60
2022/07/24 05:56:10;;;;;;;27.00;20.23;;;;;;;18.91;100.00;101818.16;4736787;30;20164;-63
2022/07/24 05:58:36;;;;;;;27.27;19.13;;;;;;;18.99;100.00;101820.75;4729691;30;20074;-62
2022/07/24 06:01:03;;;;;;;25.90;19.98;;;;;;;19.03;100.00;101823.88;4735824;30;20082;-63
2022/07/24 06:03:29;;;;;;;25.73;19.15;;;;;;;19.08;100.00;101822.34;4734569;30;20608;-62
2022/07/24 06:05:56;;;;;;;26.48;20.67;;;;;;;19.14;100.00;101824.28;4740826;30;20060;-62
2022/07/24 06:08:22;;;;;;;23.83;21.23;;;;;;;19.21;100.00;101826.22;4734730;30;20082;-62
2022/07/24 06:10:49;;;;;;;28.70;22.65;;;;;;;19.23;100.00;101830.38;4731575;30;20601;-63
2022/07/24 06:13:15;;;;;;;31.60;23.58;;;;;;;19.30;100.00;101835.81;4741684;30;20059;-63
2022/07/24 06:15:42;;;;;;;31.20;23.20;;;;;;;19.36;100.00;101837.75;4734161;30;20182;-62
2022/07/24 06:18:08;;;;;;;27.85;21.42;;;;;;;19.41;100.00;101837.22;4749708;30;20569;-62
2022/07/24 06:20:34;;;;;;;24.48;17.42;;;;;;;19.44;100.00;101834.19;4734778;30;20071;-62
2022/07/24 06:23:01;;;;;;;27.52;19.55;;;;;;;19.52;100.00;101828.78;4711142;30;20155;-63
2022/07/24 06:25:27;;;;;;;25.38;17.50;;;;;;;19.60;100.00;101841.19;4736971;30;20064;-63
2022/07/24 06:27:54;;;;;;;19.85;15.30;;;;;;;19.68;100.00;101838.44;4721309;30;20060;-62
2022/07/24 06:30:22;;;;;;;20.75;14.50;;;;;;;19.73;100.00;101836.09;4741441;30;20063;-63
2022/07/24 06:32:49;;;;;;;;;;;;;;;19.82;100.00;101839.53;4722827;30;20060;-62
2022/07/24 06:35:15;;;;;;;20.33;13.55;;;;;;;19.83;100.00;101841.97;4739205;30;19936;-63
2022/07/24 06:37:42;;;;;;;19.58;13.57;;;;;;;19.83;100.00;101835.84;4724097;30;20527;-62
2022/07/24 06:40:14;;;;;;;21.98;12.32;;;;;;;19.92;100.00;101838.22;4722863;30;20073;-63
2022/07/24 06:42:40;;;;;;;16.08;12.52;;;;;;;19.97;100.00;101831.50;4723753;30;20060;-61
2022/07/24 06:45:07;;;;;;;16.60;12.18;;;;;;;20.00;100.00;101831.97;4729210;30;20520;-63
2022/07/24 06:47:34;;;;;;;17.80;12.25;;;;;;;20.05;100.00;101832.25;4736072;30;20063;-63
2022/07/24 06:50:01;;;;;;;19.20;13.15;;;;;;;20.11;100.00;101833.34;4715274;30;20104;-62
2022/07/24 06:52:27;;;;;;;17.30;12.52;;;;;;;20.11;100.00;101823.53;4732714;30;20078;-62
2022/07/24 06:54:54;;;;;;;15.20;10.93;;;;;;;20.19;100.00;101825.28;4723166;30;20068;-63
2022/07/24 06:57:20;;;;;;;12.65;9.60;;;;;;;20.24;100.00;101822.84;4732614;30;20060;-63
2022/07/24 06:59:47;;;;;;;13.38;9.52;;;;;;;20.31;100.00;101829.09;4735920;30;20071;-63
2022/07/24 07:02:13;;;;;;;10.60;8.55;;;;;;;20.36;100.00;101825.88;4716296;30;20056;-63
2022/07/24 07:04:39;;;;;;;15.75;8.88;;;;;;;20.40;100.00;101821.81;4725516;30;20061;-63
2022/07/24 07:07:06;;;;;;;13.43;9.52;;;;;;;20.43;100.00;101826.78;4713274;30;20071;-63
2022/07/24 07:09:35;;;;;;;11.20;8.05;;;;;;;20.52;100.00;101823.00;4721647;30;20064;-63
2022/07/24 07:12:03;;;;;;;10.10;8.10;;;;;;;20.60;100.00;101822.09;4736450;30;20506;-65
2022/07/24 07:14:30;;;;;;;15.80;8.88;;;;;;;20.65;100.00;101821.53;4730552;30;20066;-63
2022/07/24 07:16:56;;;;;;;11.27;7.28;;;;;;;20.72;100.00;101828.56;4726193;30;20064;-63
2022/07/24 07:19:23;;;;;;;10.02;7.53;;;;;;;20.83;100.00;101829.09;4718983;30;20067;-62
2022/07/24 07:21:50;;;;;;;12.02;8.48;;;;;;;20.89;100.00;101830.97;4735563;30;20072;-62
2022/07/24 07:24:16;;;;;;;11.77;8.20;;;;;;;20.96;100.00;101825.72;4734071;30;20057;-63
2022/07/24 07:26:43;;;;;;;11.13;7.70;;;;;;;20.99;100.00;101828.81;4724623;30;20074;-65
2022/07/24 07:29:09;;;;;;;10.93;8.15;;;;;;;21.04;100.00;101823.75;4731708;30;20060;-62
2022/07/24 07:31:36;;;;;;;12.38;8.27;;;;;;;21.10;100.00;101828.31;4726967;30;20432;-62
2022/07/24 07:34:02;;;;;;;11.77;8.15;;;;;;;21.16;99.36;101832.06;4734490;30;20079;-64
2022/07/24 07:36:29;;;;;;;9.65;7.70;;;;;;;21.19;100.00;101831.69;4720384;30;20161;-61
2022/07/24 07:38:57;;;;;;;11.32;8.13;;;;;;;21.26;100.00;101834.41;4730493;30;20422;-63
2022/07/24 07:41:24;;;;;;;11.77;8.00;;;;;;;21.35;100.00;101835.09;4723188;30;20569;-63
2022/07/24 07:43:51;;;;;;;12.57;7.30;;;;;;;21.43;99.24;101832.28;4725982;30;20063;-63
2022/07/24 07:46:18;;;;;;;12.57;7.07;;;;;;;21.48;100.00;101832.53;4729593;30;20060;-62
2022/07/24 07:48:44;;;;;;;13.90;8.25;;;;;;;21.56;97.33;101837.75;4729708;30;20383;-63
2022/07/24 07:51:11;;;;;;;8.18;6.47;;;;;;;21.64;98.48;101832.25;4742218;30;20148;-63
2022/07/24 07:53:38;;;;;;;9.55;6.78;;;;;;;21.69;98.20;101827.13;4736574;30;20388;-63
2022/07/24 07:56:05;;;;;;;9.07;6.15;;;;;;;21.73;90.08;101814.22;4738258;30;20056;-63
2022/07/24 07:58:31;;;;;;;9.73;5.85;;;;;;;21.85;90.40;101822.50;4732222;30;20061;-63
2022/07/24 08:00:58;;;;;;;11.73;5.45;;;;;;;21.86;89.64;101826.84;4723947;30;20068;-62
2022/07/24 08:03:24;;;;;;;7.45;5.20;;;;;;;21.89;89.12;101813.09;4731395;30;20499;-63
2022/07/24 08:05:51;;;;;;;7.70;5.45;;;;;;;21.98;89.77;101821.78;4726051;30;20074;-63
2022/07/24 08:08:24;;;;;;;10.50;4.63;;;;;;;22.01;87.55;101819.53;4730532;30;20396;-61
2022/07/24 08:10:50;;;;;;;7.85;5.35;;;;;;;22.04;87.76;101819.13;4730874;30;20071;-62
2022/07/24 08:13:17;;;;;;;9.32;5.18;;;;;;;22.14;87.36;101829.44;4735085;30;20068;-63
2022/07/24 08:15:44;;;;;;;7.43;4.87;;;;;;;22.17;87.17;101822.88;4730539;30;20265;-63
2022/07/24 08:18:10;;;;;;;12.38;4.82;;;;;;;22.23;88.56;101819.44;4728395;30;20081;-61
2022/07/24 08:20:37;;;;;;;8.77;4.93;;;;;;;22.31;89.11;101825.44;4738893;30;20098;-61
2022/07/24 08:23:04;;;;;;;8.15;3.95;;;;;;;22.40;88.62;101818.06;4720233;30;20068;-62
2022/07/24 08:25:30;;;;;;;8.10;4.60;;;;;;;22.54;88.28;101823.44;4737451;30;20063;-63
2022/07/24 08:27:56;;;;;;;7.43;4.55;;;;;;;22.62;86.91;101823.25;4724686;30;20060;-61
2022/07/24 08:30:25;;;;;;;5.78;3.97;;;;;;;22.76;87.47;101826.78;4736083;30;20189;-62
2022/07/24 08:32:51;;;;;;;6.45;4.15;;;;;;;22.96;87.84;101827.66;4738802;30;20074;-61
2022/07/24 08:35:18;;;;;;;4.68;3.20;;;;;;;23.10;82.33;101817.81;4719822;30;20078;-63
2022/07/24 08:37:44;;;;;;;6.13;3.50;;;;;;;23.35;81.09;101828.72;4723025;30;20071;-62
2022/07/24 08:40:12;;;;;;;5.38;3.63;;;;;;;23.57;79.50;101818.59;4723378;30;20065;-66
2022/07/24 08:42:38;;;;;;;5.03;3.00;;;;;;;24.00;80.00;101819.97;4729267;30;20540;-62
2022/07/24 08:45:06;;;;;;;5.53;3.38;;;;;;;24.27;75.79;101818.81;4723054;30;20071;-64
2022/07/24 08:47:33;;;;;;;5.93;3.28;;;;;;;24.43;75.79;101816.69;4731425;30;20056;-62
2022/07/24 08:50:02;;;;;;;5.63;3.13;;;;;;;24.84;74.65;101815.41;4722445;30;20075;-61
2022/07/24 08:52:29;;;;;;;3.95;2.80;;;;;;;25.08;74.32;101812.97;4730802;30;20055;-63
2022/07/24 08:54:55;;;;;;;6.05;3.05;;;;;;;25.20;72.42;101816.56;4732748;30;20312;-61
2022/07/24 08:57:22;;;;;;;4.32;2.88;;;;;;;25.33;71.98;101815.69;4721856;30;20060;-63
2022/07/24 08:59:48;;;;;;;3.72;2.75;;;;;;;25.53;70.88;101810.09;4730053;30;20079;-63
2022/07/24 09:02:15;;;;;;;3.75;2.70;;;;;;;25.91;72.64;101803.72;4725277;30;20305;-61
2022/07/24 09:04:46;;;;;;;4.25;2.63;;;;;;;26.27;72.18;101813.63;4736848;30;20785;-63
2022/07/24 09:07:15;;;;;;;3.35;2.60;;;;;;;26.46;68.68;101810.88;4735612;30;20092;-62
2022/07/24 09:09:44;;;;;;;4.32;2.58;;;;;;;26.60;66.65;101801.59;4721817;30;20589;-63
2022/07/24 09:12:13;;;;;;;2.97;2.47;;;;;;;26.87;65.70;101811.94;4734243;30;20435;-61
2022/07/24 09:14:43;;;;;;;3.72;2.67;;;;;;;27.14;67.07;101805.06;4721379;30;20064;-60
2022/07/24 09:17:13;;;;;;;3.35;2.47;;;;;;;27.47;68.35;101803.69;4736008;30;20060;-62
2022/07/24 09:19:51;;;;;;;3.80;2.33;;;;;;;27.63;66.26;101790.56;4734677;30;20426;-63
2022/07/24 09:22:29;;;;;;;3.45;2.58;;;;;;;27.54;63.20;101787.38;4728405;30;20661;-62
2022/07/24 09:25:18;;;;;;;3.47;2.78;;;;;;;27.46;62.28;101790.44;4731663;30;20060;-62
2022/07/24 09:27:49;;;;;;;3.65;2.38;;;;;;;27.60;61.95;101783.78;4717535;30;20243;-63
2022/07/24 09:30:24;;;;;;;4.70;2.38;;;;;;;27.72;64.93;101787.25;4734250;30;20060;-62
2022/07/24 09:32:53;;;;;;;4.00;2.28;;;;;;;27.77;63.29;101783.84;4725423;30;20064;-63
2022/07/24 09:35:42;;;;;;;3.80;2.42;;;;;;;27.73;62.84;101791.56;4730281;30;20052;-63
2022/07/24 09:38:11;;;;;;;3.53;2.30;;;;;;;27.90;64.05;101788.19;4717345;30;20067;-64
2022/07/24 09:40:40;;;;;;;4.03;2.38;;;;;;;28.17;67.16;101783.03;4730084;30;20551;-64
2022/07/24 09:43:21;;;;;;;3.65;2.65;;;;;;;28.22;62.15;101777.72;4738307;30;20076;-64
2022/07/24 09:45:59;;;;;;;6.07;2.63;;;;;;;28.43;62.67;101778.91;4724196;30;20060;-64
2022/07/24 09:48:33;;;;;;;5.35;2.50;;;;;;;28.32;63.35;101777.91;4717253;30;20428;-63
2022/07/24 09:51:03;;;;;;;3.05;2.40;;;;;;;28.24;62.24;101774.78;4724293;30;20143;-62
2022/07/24 09:53:32;;;;;;;4.63;2.30;;;;;;;28.43;63.19;101772.72;4726689;30;20541;-63
2022/07/24 09:56:09;;;;;;;2.53;2.13;;;;;;;28.67;63.24;101770.72;4730815;30;20072;-63
2022/07/24 09:58:38;;;;;;;3.05;2.42;;;;;;;28.66;61.85;101772.59;4742425;30;20063;-62
2022/07/24 10:01:08;;;;;;;3.05;2.45;;;;;;;28.67;61.23;101763.44;4738853;30;20063;-61
2022/07/24 10:03:40;;;;;;;3.03;2.25;;;;;;;28.46;61.90;101762.25;4733755;30;20064;-61
2022/07/24 10:06:09;;;;;;;3.35;2.58;;;;;;;28.46;63.25;101766.81;4717796;30;20064;-62
2022/07/24 10:08:37;;;;;;;2.80;2.30;;;;;;;28.58;61.65;101757.63;4748761;30;20162;-62
2022/07/24 10:11:04;;;;;;;3.83;2.15;;;;;;;28.74;61.63;101752.47;4742117;30;20064;-63
2022/07/24 10:13:31;;;;;;;3.35;2.45;;;;;;;28.65;61.92;101754.75;4733553;29;20089;-63
2022/07/24 10:16:27;;;;;;;2.92;2.30;;;;;;;28.97;61.56;101755.00;4740797;30;20529;-62
2022/07/24 10:18:54;;;;;;;4.13;2.28;;;;;;;29.05;61.26;101753.78;4714225;30;20156;-63
2022/07/24 10:21:24;;;;;;;4.80;2.00;;;;;;;29.20;60.64;101755.88;4730396;30;20618;-63
2022/07/24 10:23:58;;;;;;;3.33;2.17;;;;;;;29.50;61.52;101751.94;4723904;30;20060;-63
2022/07/24 10:26:42;;;;;;;2.55;2.15;;;;;;;29.94;61.94;101754.66;4725900;30;20514;-61
2022/07/24 10:29:21;;;;;;;3.83;2.47;;;;;;;29.64;59.68;101752.38;4724921;30;20075;-63
2022/07/24 10:31:50;;;;;;;3.28;2.30;;;;;;;29.94;61.50;101743.84;4733137;30;20064;-63
2022/07/24 10:34:16;;;;;;;2.55;1.95;;;;;;;29.72;57.86;101752.00;4731991;30;20087;-63
2022/07/24 10:37:19;;;;;;;2.35;2.05;;;;;;;29.82;59.15;101743.19;4724062;30;20061;-63
2022/07/24 10:40:11;;;;;;;3.55;2.33;;;;;;;29.91;59.81;101745.19;4725702;30;20371;-61
2022/07/24 10:43:06;;;;;;;2.70;2.35;;;;;;;30.16;60.40;101750.00;4745990;30;20161;-63
2022/07/24 10:45:33;;;;;;;4.03;2.10;;;;;;;30.12;59.05;101745.38;4744499;30;20052;-63
2022/07/24 10:48:28;;;;;;;4.35;2.10;;;;;;;30.23;59.18;101736.28;4720473;30;20060;-68
2022/07/24 10:50:57;;;;;;;3.22;2.42;;;;;;;30.35;57.31;101744.28;4737930;30;20327;-63
2022/07/24 10:53:26;;;;;;;3.13;2.30;;;;;;;30.32;56.79;101740.22;4727898;30;20060;-63
2022/07/24 10:56:13;;;;;;;3.55;2.08;;;;;;;30.14;59.62;101737.81;4736009;30;20161;-64
2022/07/24 10:58:59;;;;;;;;;;;;;;;29.77;59.24;101735.81;4721321;30;20713;-63
2022/07/24 11:01:29;;;;;;;5.30;2.65;;;;;;;29.94;59.22;101728.44;4725376;30;20577;-63
2022/07/24 11:03:58;;;;;;;4.55;2.50;;;;;;;29.86;57.60;101726.19;4727119;30;20184;-63
2022/07/24 11:06:46;;;;;;;4.20;2.78;;;;;;;29.95;59.60;101734.66;4741713;30;20120;-63
2022/07/24 11:09:14;;;;;;;3.75;2.40;;;;;;;30.16;59.00;101722.97;4719553;30;20517;-63
2022/07/24 11:11:52;;;;;;;3.63;2.40;;;;;;;30.23;58.06;101714.66;4734001;30;20068;-64
2022/07/24 11:14:23;;;;;;;2.97;2.33;;;;;;;30.24;58.65;101718.16;4731984;30;20416;-63
2022/07/24 11:16:51;;;;;;;3.28;2.47;;;;;;;30.23;57.06;101720.06;4737405;30;20067;-63
2022/07/24 11:19:17;;;;;;;4.00;2.40;;;;;;;30.24;57.66;101723.56;4747742;30;20146;-63